Tourist Ferry Boat 3 — IQAQ — position and weather

sailwx.info

Track history (hours):
 
Tides and Currents Weather Stations Pressure Air Temp Water Temp Dewpoint Dewpoint Depression Visibility Wind Speed Wind Dir Waves Ship Positions

Tourist Ferry Boat 3

Last reported at 2016-Aug-24 15:12 UTC. Time now 2016-Aug-30 10:55 UTC.
Position N 40°48' E 014°06'.

; draft 1.8 m.

Type: Ship. MMSI: 247048900.

Date/timePositionNaut miles runAvg speedWind from/ knotsBaromVisibWave heightAir tempDewpointWater temp
2016-Aug-24 15:12N 40°48' E 014°06'3 5.0
2016-Aug-24 14:32N 40°46' E 014°02'3 1.3
2016-Aug-24 12:05N 40°48' E 014°06'3 4.1
2016-Aug-24 11:22N 40°46' E 014°03'1 0.3
2016-Aug-24 09:32N 40°46' E 014°03'1 0.2
2016-Aug-24 06:12N 40°46' E 014°02'0 0.1
2016-Aug-24 04:26N 40°46' E 014°02'3 0.2
2016-Aug-23 15:17N 40°48' E 014°06'3 4.4
2016-Aug-23 14:29N 40°46' E 014°02'0 0.0
2016-Aug-23 11:22N 40°46' E 014°02'0 0.1
2016-Aug-23 09:32N 40°46' E 014°02'0 0.1
2016-Aug-23 06:17N 40°46' E 014°02'0 0.1
2016-Aug-23 04:30N 40°46' E 014°02'4 0.3
2016-Aug-22 15:11N 40°48' E 014°06'3 4.1
2016-Aug-22 14:25N 40°46' E 014°03'0 0.0
2016-Aug-22 11:13N 40°46' E 014°03'1 0.4
2016-Aug-22 09:28N 40°46' E 014°02'0 0.1
2016-Aug-22 06:14N 40°46' E 014°02'0 0.2
2016-Aug-22 04:33N 40°46' E 014°02'4 0.3
2016-Aug-21 15:08N 40°48' E 014°06'3 0.8
2016-Aug-21 11:14N 40°46' E 014°03'0 0.1
2016-Aug-21 06:13N 40°46' E 014°02'1 0.5
2016-Aug-21 04:14N 40°46' E 014°03'3 0.2
2016-Aug-20 15:10N 40°48' E 014°06'3 4.7
2016-Aug-20 14:26N 40°46' E 014°02'3 1.4
2016-Aug-20 12:06N 40°48' E 014°06'3 4.7
2016-Aug-20 11:24N 40°46' E 014°02'0 0.2
2016-Aug-20 09:30N 40°46' E 014°03'1 0.1
2016-Aug-20 04:20N 40°46' E 014°02'3 0.3
2016-Aug-19 15:08N 40°48' E 014°06'3 4.8
2016-Aug-19 14:27N 40°46' E 014°02'0 0.1
2016-Aug-19 11:16N 40°46' E 014°03'0 0.0
2016-Aug-19 09:33N 40°46' E 014°03'1 0.2
2016-Aug-19 06:33N 40°46' E 014°02'1 0.6
2016-Aug-19 04:33N 40°46' E 014°03'2 0.2
2016-Aug-18 15:09N 40°48' E 014°06'3 4.5
2016-Aug-18 14:26N 40°46' E 014°02'1 0.2
2016-Aug-18 11:13N 40°46' E 014°03'1 0.3
2016-Aug-18 09:10N 40°46' E 014°02'0 0.1
2016-Aug-18 06:13N 40°46' E 014°02'0 0.2
2016-Aug-18 04:18N 40°46' E 014°02'3 0.2
2016-Aug-17 15:08N 40°48' E 014°06'3 4.9
2016-Aug-17 14:27N 40°46' E 014°02'1 0.2
2016-Aug-17 09:32N 40°46' E 014°04'1 0.3
2016-Aug-17 06:11N 40°46' E 014°02'0 0.1
2016-Aug-17 04:20N 40°46' E 014°02'3 0.3
2016-Aug-16 15:12N 40°48' E 014°06'4 4.9
2016-Aug-16 14:28N 40°46' E 014°02'1 0.2
2016-Aug-16 11:14N 40°46' E 014°03'0 0.1
2016-Aug-16 09:30N 40°46' E 014°03'1 0.2
2016-Aug-16 06:13N 40°46' E 014°02'0 0.1
2016-Aug-16 04:22N 40°46' E 014°02'4 0.3
2016-Aug-15 15:09N 40°48' E 014°06'4 1.0
2016-Aug-15 11:20N 40°46' E 014°02'1 0.7
2016-Aug-15 09:31N 40°46' E 014°03'1 0.2
2016-Aug-15 06:16N 40°46' E 014°02'  
Track history (hours):
 
Tides and Currents Weather Stations Pressure Air Temp Water Temp Dewpoint Dewpoint Depression Visibility Wind Speed Wind Dir Waves Ship Positions

Tourist Ferry Boat 3

Last reported at 2016-Aug-24 15:12 UTC. Time now 2016-Aug-30 10:55 UTC.
Position N 40°48' E 014°06'.

; draft 1.8 m.

Type: Ship. MMSI: 247048900.

Date/timePositionNaut miles runAvg speedWind from/ knotsBaromVisibWave heightAir tempDewpointWater temp
2016-Aug-24 15:12N 40°48' E 014°06'3 5.0
2016-Aug-24 14:32N 40°46' E 014°02'3 1.3
2016-Aug-24 12:05N 40°48' E 014°06'3 4.1
2016-Aug-24 11:22N 40°46' E 014°03'1 0.3
2016-Aug-24 09:32N 40°46' E 014°03'1 0.2
2016-Aug-24 06:12N 40°46' E 014°02'0 0.1
2016-Aug-24 04:26N 40°46' E 014°02'3 0.2
2016-Aug-23 15:17N 40°48' E 014°06'3 4.4
2016-Aug-23 14:29N 40°46' E 014°02'0 0.0
2016-Aug-23 11:22N 40°46' E 014°02'0 0.1
2016-Aug-23 09:32N 40°46' E 014°02'0 0.1
2016-Aug-23 06:17N 40°46' E 014°02'0 0.1
2016-Aug-23 04:30N 40°46' E 014°02'4 0.3
2016-Aug-22 15:11N 40°48' E 014°06'3 4.1
2016-Aug-22 14:25N 40°46' E 014°03'0 0.0
2016-Aug-22 11:13N 40°46' E 014°03'1 0.4
2016-Aug-22 09:28N 40°46' E 014°02'0 0.1
2016-Aug-22 06:14N 40°46' E 014°02'0 0.2
2016-Aug-22 04:33N 40°46' E 014°02'4 0.3
2016-Aug-21 15:08N 40°48' E 014°06'3 0.8
2016-Aug-21 11:14N 40°46' E 014°03'0 0.1
2016-Aug-21 06:13N 40°46' E 014°02'1 0.5
2016-Aug-21 04:14N 40°46' E 014°03'3 0.2
2016-Aug-20 15:10N 40°48' E 014°06'3 4.7
2016-Aug-20 14:26N 40°46' E 014°02'3 1.4
2016-Aug-20 12:06N 40°48' E 014°06'3 4.7
2016-Aug-20 11:24N 40°46' E 014°02'0 0.2
2016-Aug-20 09:30N 40°46' E 014°03'1 0.1
2016-Aug-20 04:20N 40°46' E 014°02'3 0.3
2016-Aug-19 15:08N 40°48' E 014°06'3 4.8
2016-Aug-19 14:27N 40°46' E 014°02'0 0.1
2016-Aug-19 11:16N 40°46' E 014°03'0 0.0
2016-Aug-19 09:33N 40°46' E 014°03'1 0.2
2016-Aug-19 06:33N 40°46' E 014°02'1 0.6
2016-Aug-19 04:33N 40°46' E 014°03'2 0.2
2016-Aug-18 15:09N 40°48' E 014°06'3 4.5
2016-Aug-18 14:26N 40°46' E 014°02'1 0.2
2016-Aug-18 11:13N 40°46' E 014°03'1 0.3
2016-Aug-18 09:10N 40°46' E 014°02'0 0.1
2016-Aug-18 06:13N 40°46' E 014°02'0 0.2
2016-Aug-18 04:18N 40°46' E 014°02'3 0.2
2016-Aug-17 15:08N 40°48' E 014°06'3 4.9
2016-Aug-17 14:27N 40°46' E 014°02'1 0.2
2016-Aug-17 09:32N 40°46' E 014°04'1 0.3
2016-Aug-17 06:11N 40°46' E 014°02'0 0.1
2016-Aug-17 04:20N 40°46' E 014°02'3 0.3
2016-Aug-16 15:12N 40°48' E 014°06'4 4.9
2016-Aug-16 14:28N 40°46' E 014°02'1 0.2
2016-Aug-16 11:14N 40°46' E 014°03'0 0.1
2016-Aug-16 09:30N 40°46' E 014°03'1 0.2
2016-Aug-16 06:13N 40°46' E 014°02'0 0.1
2016-Aug-16 04:22N 40°46' E 014°02'4 0.3
2016-Aug-15 15:09N 40°48' E 014°06'4 1.0
2016-Aug-15 11:20N 40°46' E 014°02'1 0.7
2016-Aug-15 09:31N 40°46' E 014°03'1 0.2
2016-Aug-15 06:16N 40°46' E 014°02'  

Dump ship's entire track history